Time;durP1;ratioP1;P1;durP2;ratioP2;P2;SDS_P1;SDS_P2;PMS_P1;PMS_P2;Temp;Humidity;BMP_temperature;BMP_pressure;BME280_temperature;BME280_humidity;BME280_pressure;Samples;Min_cycle;Max_cycle;Signal;HPM_P1;HPM_P2
2023/02/25 00:02:10;;;;;;;12.93;6.33;;;4.80;99.90;;;;;;5055541;28;20203;-85
2023/02/25 00:04:36;;;;;;;16.97;7.37;;;4.80;99.90;;;;;;5055303;28;20191;-85
2023/02/25 00:07:01;;;;;;;20.77;8.80;;;4.80;99.90;;;;;;5038353;28;20625;-84
2023/02/25 00:09:28;;;;;;;16.60;8.27;;;4.70;99.90;;;;;;5055110;28;20218;-84
2023/02/25 00:11:54;;;;;;;16.93;8.20;;;4.70;99.90;;;;;;5056519;28;20180;-84
2023/02/25 00:14:20;;;;;;;20.93;7.23;;;4.70;99.90;;;;;;5055642;28;20188;-84
2023/02/25 00:16:48;;;;;;;17.33;7.57;;;4.70;99.90;;;;;;5038381;28;20667;-85
2023/02/25 00:19:14;;;;;;;14.07;6.50;;;4.70;99.90;;;;;;5056749;28;20187;-85
2023/02/25 00:21:39;;;;;;;15.87;7.63;;;4.70;99.90;;;;;;5038657;28;20191;-84
2023/02/25 00:24:05;;;;;;;14.03;5.90;;;4.70;99.90;;;;;;5056276;28;20290;-84
2023/02/25 00:26:31;;;;;;;13.80;7.20;;;4.80;99.90;;;;;;5055260;28;20265;-85
2023/02/25 00:28:57;;;;;;;13.73;5.03;;;4.70;99.90;;;;;;5055937;28;20244;-84
2023/02/25 00:31:24;;;;;;;11.80;4.13;;;4.70;99.90;;;;;;5056009;28;20188;-84
2023/02/25 00:33:50;;;;;;;13.70;6.20;;;4.70;99.90;;;;;;5055898;28;20175;-85
2023/02/25 00:36:21;;;;;;;12.93;4.90;;;4.60;99.90;;;;;;5055007;28;20176;-84
2023/02/25 00:38:56;;;;;;;10.57;5.70;;;4.60;99.90;;;;;;5055736;28;20592;-89
2023/02/25 00:41:27;;;;;;;5.47;4.27;;;4.60;99.90;;;;;;5056412;28;20164;-85
2023/02/25 00:43:55;;;;;;;11.23;5.53;;;4.60;99.90;;;;;;5055772;28;20569;-86
2023/02/25 00:46:21;;;;;;;12.90;6.03;;;4.60;99.90;;;;;;5055665;28;20719;-85
2023/02/25 00:48:47;;;;;;;11.13;4.60;;;4.60;99.90;;;;;;5055837;28;20207;-85
2023/02/25 00:51:16;;;;;;;7.40;4.43;;;4.60;99.90;;;;;;5055617;28;20187;-85
2023/02/25 00:53:42;;;;;;;9.13;4.13;;;4.50;99.90;;;;;;5053773;28;20222;-85
2023/02/25 00:56:10;;;;;;;7.23;4.87;;;4.50;99.90;;;;;;5054501;28;20648;-85
2023/02/25 00:58:38;;;;;;;5.90;3.90;;;4.50;99.90;;;;;;5056134;28;20219;-85
2023/02/25 01:01:13;;;;;;;4.37;3.97;;;4.50;99.90;;;;;;5054443;28;20184;-85
2023/02/25 01:03:39;;;;;;;4.97;3.30;;;4.50;99.90;;;;;;5056056;28;20163;-85
2023/02/25 01:06:07;;;;;;;7.83;4.43;;;4.60;99.90;;;;;;5054574;28;20226;-85
2023/02/25 01:08:33;;;;;;;3.97;2.83;;;4.50;99.90;;;;;;5056027;28;20220;-85
2023/02/25 01:10:59;;;;;;;6.90;4.30;;;4.60;99.90;;;;;;5055763;28;20230;-86
2023/02/25 01:13:24;;;;;;;7.30;4.23;;;4.60;99.90;;;;;;5055619;28;20214;-85
2023/02/25 01:15:50;;;;;;;7.97;3.40;;;4.60;99.90;;;;;;5037809;28;20232;-85
2023/02/25 01:18:19;;;;;;;6.00;4.43;;;4.60;99.90;;;;;;5055128;28;20180;-84
2023/02/25 01:20:45;;;;;;;5.93;3.20;;;4.60;99.90;;;;;;5054158;28;20538;-85
2023/02/25 01:23:11;;;;;;;3.57;3.17;;;4.60;99.90;;;;;;5055165;28;20183;-85
2023/02/25 01:25:40;;;;;;;7.83;3.63;;;4.60;99.90;;;;;;5055247;28;20184;-86
2023/02/25 01:28:06;;;;;;;9.50;3.87;;;4.60;99.90;;;;;;5054021;28;20180;-85
2023/02/25 01:30:36;;;;;;;6.37;3.77;;;4.60;99.90;;;;;;5054167;28;20266;-85
2023/02/25 01:33:01;;;;;;;4.93;2.37;;;4.70;99.90;;;;;;5055321;28;20176;-85
2023/02/25 01:35:27;;;;;;;3.60;2.90;;;4.70;99.90;;;;;;5055147;28;20229;-85
2023/02/25 01:37:54;;;;;;;4.83;3.27;;;4.70;99.90;;;;;;5055307;28;20176;-85
2023/02/25 01:40:19;;;;;;;4.17;2.37;;;4.70;99.90;;;;;;5037219;28;20199;-86
2023/02/25 01:42:46;;;;;;;3.63;1.97;;;4.70;99.90;;;;;;5037591;28;20649;-85
2023/02/25 01:45:20;;;;;;;3.43;2.07;;;4.60;99.90;;;;;;5020258;28;20186;-86
2023/02/25 01:48:09;;;;;;;2.00;1.80;;;4.60;99.90;;;;;;5054835;28;20706;-85
2023/02/25 01:50:40;;;;;;;1.83;1.73;;;4.60;99.90;;;;;;5054713;28;20223;-85
2023/02/25 01:53:07;;;;;;;5.40;2.00;;;4.50;99.90;;;;;;5053306;28;20268;-85
2023/02/25 01:55:33;;;;;;;2.50;1.73;;;4.50;99.90;;;;;;5036935;28;20633;-85
2023/02/25 01:58:00;;;;;;;2.13;1.70;;;4.50;99.90;;;;;;5054414;28;20237;-86
2023/02/25 02:00:29;;;;;;;5.50;1.93;;;4.50;99.90;;;;;;5053222;28;20188;-85
2023/02/25 02:02:57;;;;;;;3.70;1.90;;;4.50;99.90;;;;;;5053248;28;20206;-84
2023/02/25 02:05:27;;;;;;;2.90;2.03;;;4.40;99.90;;;;;;5054164;28;20259;-87
2023/02/25 02:07:53;;;;;;;5.70;2.50;;;4.50;99.90;;;;;;5053059;28;20229;-84
2023/02/25 02:10:18;;;;;;;4.13;2.50;;;4.50;99.90;;;;;;5052915;28;20184;-85
2023/02/25 02:12:46;;;;;;;2.23;2.03;;;4.50;99.90;;;;;;5036467;28;20730;-85
2023/02/25 02:15:14;;;;;;;2.90;2.37;;;4.50;99.90;;;;;;5054102;28;20176;-85
2023/02/25 02:18:11;;;;;;;5.80;2.43;;;4.40;99.90;;;;;;5054660;28;20665;-84
2023/02/25 02:21:10;;;;;;;2.63;2.37;;;4.50;99.90;;;;;;5030617;28;20278;-85
2023/02/25 02:24:04;;;;;;;5.70;2.60;;;4.50;99.90;;;;;;5052922;28;20176;-85
2023/02/25 02:26:43;;;;;;;6.37;3.17;;;4.50;99.90;;;;;;5054253;28;20171;-85
2023/02/25 02:29:44;;;;;;;3.37;2.13;;;4.50;99.90;;;;;;5053709;28;20208;-86
2023/02/25 02:32:31;;;;;;;2.50;2.30;;;4.50;99.90;;;;;;5030087;28;20223;-85
2023/02/25 02:35:19;;;;;;;3.53;2.67;;;4.50;99.90;;;;;;5054033;28;20206;-85
2023/02/25 02:37:59;;;;;;;4.60;2.17;;;4.50;99.90;;;;;;5053906;28;20601;-84
2023/02/25 02:40:36;;;;;;;4.70;2.80;;;4.50;99.90;;;;;;5052272;28;20184;-85
2023/02/25 02:43:33;;;;;;;3.10;1.90;;;4.50;99.90;;;;;;5054051;28;20663;-86
2023/02/25 02:46:08;;;;;;;4.40;1.80;;;4.60;99.90;;;;;;5052508;28;20235;-85
2023/02/25 02:48:40;;;;;;;5.60;2.40;;;4.60;99.90;;;;;;5053425;28;20676;-85
2023/02/25 02:51:32;;;;;;;4.67;2.97;;;4.60;99.90;;;;;;5053643;28;20182;-85
2023/02/25 02:54:00;;;;;;;5.40;2.17;;;4.60;99.90;;;;;;5033307;28;20219;-85
2023/02/25 02:56:28;;;;;;;4.00;2.73;;;4.70;99.90;;;;;;5053393;28;20184;-85
2023/02/25 02:59:06;;;;;;;4.00;1.87;;;4.70;99.90;;;;;;5053491;28;20179;-86
2023/02/25 03:01:54;;;;;;;3.20;1.90;;;4.60;99.90;;;;;;5053139;28;20628;-85
2023/02/25 03:04:28;;;;;;;3.07;2.30;;;4.60;99.90;;;;;;5052665;28;20188;-86
2023/02/25 03:07:01;;;;;;;7.13;3.43;;;4.60;99.90;;;;;;5052425;28;20271;-86
2023/02/25 03:09:32;;;;;;;8.10;3.87;;;4.50;99.90;;;;;;5053211;28;20192;-86
2023/02/25 03:11:58;;;;;;;7.03;2.53;;;4.50;99.90;;;;;;5053415;28;20164;-86
2023/02/25 03:14:24;;;;;;;7.63;2.37;;;4.50;99.90;;;;;;5052864;28;20228;-86
2023/02/25 03:17:07;;;;;;;2.70;2.30;;;4.40;99.90;;;;;;5051439;28;20527;-85
2023/02/25 03:19:40;;;;;;;3.63;2.47;;;4.50;99.90;;;;;;5051473;28;20187;-86
2023/02/25 03:22:19;;;;;;;5.43;2.80;;;4.40;99.90;;;;;;5052882;28;20176;-86
2023/02/25 03:24:51;;;;;;;3.67;2.13;;;4.40;99.90;;;;;;5053145;28;20211;-85
2023/02/25 03:27:22;;;;;;;5.60;3.40;;;4.40;99.90;;;;;;5052873;28;20247;-86
2023/02/25 03:29:48;;;;;;;2.70;1.80;;;4.40;99.90;;;;;;5052836;28;20204;-86
2023/02/25 03:32:16;;;;;;;2.63;2.27;;;4.40;99.90;;;;;;5052773;28;20192;-86
2023/02/25 03:34:47;;;;;;;3.10;2.50;;;4.40;99.90;;;;;;5053015;28;20186;-85
2023/02/25 03:37:20;;;;;;;3.03;1.97;;;4.40;99.90;;;;;;5053131;28;20187;-85
2023/02/25 03:39:51;;;;;;;4.37;1.93;;;4.40;99.90;;;;;;5051493;28;20257;-85
2023/02/25 03:42:22;;;;;;;4.47;2.93;;;4.40;99.90;;;;;;5051213;28;20184;-85
2023/02/25 03:44:53;;;;;;;4.93;2.50;;;4.30;99.90;;;;;;5053147;28;20156;-84
2023/02/25 03:47:22;;;;;;;4.33;2.40;;;4.40;99.90;;;;;;5052217;28;20226;-84
2023/02/25 03:50:06;;;;;;;4.43;3.40;;;4.40;99.90;;;;;;5053005;28;20203;-85
2023/02/25 03:52:32;;;;;;;3.90;3.30;;;4.40;99.90;;;;;;5052341;28;20176;-85
2023/02/25 03:54:58;;;;;;;4.97;2.73;;;4.40;99.90;;;;;;5053330;28;20188;-86
2023/02/25 03:57:32;;;;;;;4.60;2.10;;;4.40;99.90;;;;;;5051405;28;20664;-86
2023/02/25 03:59:58;;;;;;;7.60;3.80;;;4.40;99.90;;;;;;5053473;28;20198;-86
2023/02/25 04:02:28;;;;;;;4.60;2.30;;;4.40;99.90;;;;;;5034692;28;20223;-85
2023/02/25 04:04:54;;;;;;;5.40;2.83;;;4.40;99.90;;;;;;5053216;28;20226;-85
2023/02/25 04:07:20;;;;;;;7.13;3.27;;;4.40;99.90;;;;;;5051938;28;20183;-86
2023/02/25 04:09:45;;;;;;;6.73;3.80;;;4.40;99.90;;;;;;5053638;28;20668;-86
2023/02/25 04:12:11;;;;;;;3.80;3.10;;;4.40;99.90;;;;;;5052089;28;20226;-85
2023/02/25 04:14:37;;;;;;;5.50;2.83;;;4.30;99.90;;;;;;5052330;28;20176;-86
2023/02/25 04:17:04;;;;;;;3.47;2.97;;;4.30;99.90;;;;;;5052520;28;20517;-85
2023/02/25 04:19:30;;;;;;;4.07;3.10;;;4.30;99.90;;;;;;5059137;28;20184;-84
2023/02/25 04:21:56;;;;;;;7.33;3.07;;;4.30;99.90;;;;;;5070308;28;20187;-84
2023/02/25 04:24:22;;;;;;;3.63;3.10;;;4.30;99.90;;;;;;5072466;28;20232;-87
2023/02/25 04:26:47;;;;;;;4.00;3.23;;;4.30;99.90;;;;;;5058731;28;20248;-86
2023/02/25 04:29:13;;;;;;;4.53;3.03;;;4.20;99.90;;;;;;5054707;28;20608;-86
2023/02/25 04:31:39;;;;;;;5.03;3.43;;;4.20;99.90;;;;;;5060678;28;20657;-85
2023/02/25 04:34:04;;;;;;;5.03;2.87;;;4.30;99.90;;;;;;5076990;28;20190;-85
2023/02/25 04:36:33;;;;;;;4.97;3.10;;;4.20;99.90;;;;;;5060142;28;20191;-86
2023/02/25 04:39:01;;;;;;;4.50;2.20;;;4.20;99.90;;;;;;5076612;28;20183;-85
2023/02/25 04:41:33;;;;;;;4.43;2.77;;;4.20;99.90;;;;;;5063075;28;20172;-85
2023/02/25 04:43:59;;;;;;;5.13;2.67;;;4.20;99.90;;;;;;5054947;28;20183;-86
2023/02/25 04:46:25;;;;;;;4.87;2.80;;;4.20;99.90;;;;;;5055693;28;20266;-86
2023/02/25 04:48:51;;;;;;;4.03;2.57;;;4.20;99.90;;;;;;5056111;28;20222;-85
2023/02/25 04:51:17;;;;;;;7.60;2.87;;;4.20;99.90;;;;;;5054539;28;20188;-85
2023/02/25 04:53:42;;;;;;;5.27;3.40;;;4.20;99.90;;;;;;5054087;28;20175;-86
2023/02/25 04:56:09;;;;;;;5.33;3.13;;;4.10;99.90;;;;;;5037612;28;20236;-86
2023/02/25 04:58:36;;;;;;;6.43;2.70;;;4.10;99.90;;;;;;5055310;28;20210;-85
2023/02/25 05:01:04;;;;;;;9.70;4.10;;;4.20;99.90;;;;;;5055528;28;20637;-85
2023/02/25 05:03:31;;;;;;;5.90;2.97;;;4.10;99.90;;;;;;5055117;28;20217;-86
2023/02/25 05:05:57;;;;;;;5.80;3.60;;;4.10;99.90;;;;;;5055756;28;20184;-85
2023/02/25 05:08:22;;;;;;;3.47;2.57;;;4.20;99.90;;;;;;5021288;28;20657;-85
2023/02/25 05:10:49;;;;;;;4.90;2.93;;;4.20;99.90;;;;;;5038295;28;20537;-85
2023/02/25 05:13:15;;;;;;;4.73;3.13;;;4.10;99.90;;;;;;5055321;28;20196;-85
2023/02/25 05:15:40;;;;;;;3.47;2.70;;;4.10;99.90;;;;;;5053594;28;20191;-85
2023/02/25 05:18:06;;;;;;;3.60;2.50;;;4.10;99.90;;;;;;5053946;28;20632;-85
2023/02/25 05:20:32;;;;;;;3.13;2.43;;;4.10;99.90;;;;;;5053965;28;20533;-86
2023/02/25 05:22:58;;;;;;;7.90;3.03;;;4.10;99.90;;;;;;5053670;28;20628;-85
2023/02/25 05:25:24;;;;;;;6.50;2.83;;;4.10;99.90;;;;;;5037339;28;20263;-85
2023/02/25 05:27:50;;;;;;;5.33;2.37;;;4.00;99.90;;;;;;5053779;28;20184;-85
2023/02/25 05:30:16;;;;;;;5.87;2.73;;;4.00;99.90;;;;;;5053859;28;20276;-85
2023/02/25 05:32:41;;;;;;;2.70;2.40;;;4.00;99.90;;;;;;5037015;28;20180;-85
2023/02/25 05:35:08;;;;;;;6.00;3.53;;;3.90;99.90;;;;;;5053965;28;20663;-85
2023/02/25 05:37:35;;;;;;;2.97;2.57;;;3.90;99.90;;;;;;5054567;28;20266;-86
2023/02/25 05:40:01;;;;;;;4.97;3.00;;;4.00;99.90;;;;;;5036726;28;20190;-85
2023/02/25 05:42:27;;;;;;;4.17;2.17;;;3.90;99.90;;;;;;5056656;28;20176;-84
2023/02/25 05:44:53;;;;;;;8.90;3.60;;;3.80;99.90;;;;;;5055003;28;20186;-86
2023/02/25 05:47:19;;;;;;;5.20;4.07;;;3.80;99.90;;;;;;5053337;28;20582;-85
2023/02/25 05:49:45;;;;;;;7.67;4.03;;;3.80;99.90;;;;;;5053304;28;20787;-85
2023/02/25 05:52:12;;;;;;;3.97;3.20;;;3.70;99.90;;;;;;5054651;28;20179;-85
2023/02/25 05:54:38;;;;;;;5.33;3.43;;;3.70;99.90;;;;;;5052918;28;20191;-85
2023/02/25 05:57:04;;;;;;;3.40;2.67;;;3.70;99.90;;;;;;5053345;28;20188;-85
2023/02/25 05:59:30;;;;;;;7.77;2.80;;;3.70;99.90;;;;;;5055192;28;20266;-85
2023/02/25 06:01:56;;;;;;;5.20;3.43;;;3.70;99.90;;;;;;5037713;28;20210;-85
2023/02/25 06:04:22;;;;;;;4.77;2.77;;;3.70;99.90;;;;;;5056107;28;20617;-85
2023/02/25 06:06:50;;;;;;;2.53;1.97;;;3.80;99.90;;;;;;5055150;28;20199;-85
2023/02/25 06:09:17;;;;;;;8.90;3.47;;;3.70;99.90;;;;;;5055278;28;20732;-83
2023/02/25 06:11:44;;;;;;;5.73;3.30;;;3.70;99.90;;;;;;5053776;28;20210;-84
2023/02/25 06:14:10;;;;;;;3.23;2.33;;;3.60;99.90;;;;;;5054244;28;20226;-86
2023/02/25 06:16:38;;;;;;;7.33;4.80;;;3.60;99.90;;;;;;5036753;28;20184;-84
2023/02/25 06:19:05;;;;;;;7.10;3.77;;;3.60;99.90;;;;;;5055602;28;20191;-85
2023/02/25 06:21:32;;;;;;;5.03;3.13;;;3.60;99.90;;;;;;5054456;28;20168;-85
2023/02/25 06:23:59;;;;;;;5.47;2.93;;;3.60;99.90;;;;;;5054157;28;20195;-86
2023/02/25 06:26:25;;;;;;;6.20;3.53;;;3.60;99.90;;;;;;5053986;28;20646;-85
2023/02/25 06:28:51;;;;;;;6.80;3.80;;;3.60;99.90;;;;;;5052047;28;20219;-85
2023/02/25 06:31:18;;;;;;;8.63;4.10;;;3.60;99.90;;;;;;5052920;28;20214;-85
2023/02/25 06:33:45;;;;;;;6.30;3.90;;;3.60;99.90;;;;;;5053434;28;20645;-88
2023/02/25 06:36:12;;;;;;;3.27;2.67;;;3.60;99.90;;;;;;5052515;28;20186;-85
2023/02/25 06:38:38;;;;;;;6.93;3.00;;;3.60;99.90;;;;;;5052182;28;20645;-85
2023/02/25 06:41:08;;;;;;;6.87;3.57;;;3.60;99.90;;;;;;5053723;28;20275;-85
2023/02/25 06:43:35;;;;;;;6.90;3.17;;;4.00;99.90;;;;;;5052922;28;20171;-88
2023/02/25 06:46:10;;;;;;;12.83;3.70;;;3.60;99.90;;;;;;5052468;28;20315;-85
2023/02/25 06:48:35;;;;;;;3.23;2.40;;;3.60;99.90;;;;;;5051828;28;20293;-86
2023/02/25 06:51:01;;;;;;;2.43;2.13;;;3.60;99.90;;;;;;5047395;28;20275;-86
2023/02/25 06:53:28;;;;;;;6.23;3.47;;;3.50;99.90;;;;;;5044110;28;20279;-87
2023/02/25 06:55:54;;;;;;;4.77;3.33;;;3.50;99.90;;;;;;5039676;28;20188;-85
2023/02/25 06:58:22;;;;;;;4.60;2.87;;;3.50;99.90;;;;;;5032712;28;20185;-87
2023/02/25 07:00:48;;;;;;;7.03;3.03;;;3.50;99.90;;;;;;5035478;28;20676;-86
2023/02/25 07:03:16;;;;;;;6.17;3.63;;;3.40;99.90;;;;;;5013695;28;20188;-87
2023/02/25 07:05:48;;;;;;;4.77;2.30;;;3.40;99.90;;;;;;5050756;28;20192;-86
2023/02/25 07:08:14;;;;;;;2.60;2.40;;;3.40;99.90;;;;;;5051289;28;20202;-87
2023/02/25 07:10:41;;;;;;;2.87;2.00;;;3.40;99.90;;;;;;5066356;28;20231;-85
2023/02/25 07:13:09;;;;;;;8.13;3.40;;;3.40;99.90;;;;;;5051001;28;20554;-86
2023/02/25 07:15:35;;;;;;;7.87;3.40;;;3.40;99.90;;;;;;5045473;28;20202;-88
2023/02/25 07:18:02;;;;;;;4.67;3.20;;;3.50;99.90;;;;;;5033828;28;20194;-89
2023/02/25 07:20:28;;;;;;;10.00;2.33;;;3.40;99.90;;;;;;5048233;28;20199;-87
2023/02/25 07:22:54;;;;;;;5.10;2.60;;;3.40;99.90;;;;;;5045745;28;20192;-87
2023/02/25 07:25:20;;;;;;;5.00;3.43;;;3.40;99.90;;;;;;5048890;28;20194;-86
2023/02/25 07:27:45;;;;;;;4.50;1.70;;;3.40;99.90;;;;;;5046557;28;20215;-87
2023/02/25 07:30:12;;;;;;;3.33;2.20;;;3.40;99.90;;;;;;5065851;28;20281;-87
2023/02/25 07:32:39;;;;;;;4.13;2.30;;;3.40;99.90;;;;;;5053466;28;20200;-87
2023/02/25 07:35:05;;;;;;;3.23;2.17;;;3.40;99.90;;;;;;5049400;28;20289;-85
2023/02/25 07:37:32;;;;;;;3.40;3.10;;;3.40;99.90;;;;;;5041369;28;20207;-86
2023/02/25 07:39:58;;;;;;;2.40;1.87;;;3.30;99.90;;;;;;5060349;28;20203;-86
2023/02/25 07:42:26;;;;;;;4.73;3.37;;;3.30;99.90;;;;;;5036585;28;20287;-87
2023/02/25 07:44:52;;;;;;;2.30;1.87;;;3.30;99.90;;;;;;5038761;28;20188;-86
2023/02/25 07:47:18;;;;;;;2.80;2.03;;;3.20;99.90;;;;;;5050304;28;20232;-87
2023/02/25 07:49:44;;;;;;;3.47;2.70;;;3.20;99.90;;;;;;5042609;28;20222;-87
2023/02/25 07:52:10;;;;;;;3.33;2.03;;;3.20;99.90;;;;;;5050197;28;20195;-86
2023/02/25 07:54:36;;;;;;;3.30;2.23;;;3.30;99.90;;;;;;5050551;28;20540;-86
2023/02/25 07:57:02;;;;;;;5.00;2.60;;;3.20;99.90;;;;;;5032593;28;20282;-88
2023/02/25 07:59:27;;;;;;;4.43;2.50;;;3.30;99.90;;;;;;5047856;28;20550;-86
2023/02/25 08:01:53;;;;;;;7.07;4.20;;;3.30;99.90;;;;;;5058178;28;20198;-87
2023/02/25 08:04:19;;;;;;;3.30;2.10;;;3.40;99.90;;;;;;5055700;28;20180;-86
2023/02/25 08:06:46;;;;;;;3.77;2.73;;;3.40;99.90;;;;;;5054266;28;20270;-87
2023/02/25 08:09:12;;;;;;;7.20;3.97;;;3.40;99.90;;;;;;5054052;28;20661;-86
2023/02/25 08:11:39;;;;;;;3.93;2.40;;;3.50;99.90;;;;;;5055016;28;20638;-88
2023/02/25 08:14:05;;;;;;;3.60;2.37;;;3.60;99.90;;;;;;5055857;28;20190;-87
2023/02/25 08:16:31;;;;;;;6.33;2.33;;;3.60;99.90;;;;;;5061500;28;20214;-86
2023/02/25 08:18:58;;;;;;;2.80;2.33;;;3.60;99.90;;;;;;5037159;28;20198;-88
2023/02/25 08:21:24;;;;;;;5.97;2.17;;;3.50;99.90;;;;;;5071340;28;20180;-87
2023/02/25 08:23:53;;;;;;;1.37;1.20;;;3.50;99.90;;;;;;5053173;28;20184;-86
2023/02/25 08:26:21;;;;;;;3.40;2.17;;;3.50;99.90;;;;;;5060608;28;20188;-86
2023/02/25 08:28:47;;;;;;;2.30;2.10;;;3.50;99.90;;;;;;5045257;28;20273;-87
2023/02/25 08:31:14;;;;;;;1.63;1.53;;;3.50;99.90;;;;;;5053035;28;20182;-86
2023/02/25 08:33:43;;;;;;;3.47;2.63;;;3.50;99.90;;;;;;5043169;28;20182;-86
2023/02/25 08:36:12;;;;;;;5.13;3.33;;;3.50;99.90;;;;;;5055052;28;20180;-86
2023/02/25 08:38:38;;;;;;;3.33;2.13;;;3.50;99.90;;;;;;5053721;28;20235;-88
2023/02/25 08:41:05;;;;;;;2.30;1.97;;;3.60;99.90;;;;;;5053697;28;20188;-87
2023/02/25 08:43:32;;;;;;;6.40;2.53;;;3.60;99.90;;;;;;5053543;28;20188;-86
2023/02/25 08:45:57;;;;;;;9.67;2.77;;;3.60;99.90;;;;;;5049480;28;20573;-87
2023/02/25 08:48:23;;;;;;;2.33;2.10;;;3.60;99.90;;;;;;5049082;28;20192;-87
2023/02/25 08:50:49;;;;;;;4.17;2.07;;;3.50;99.90;;;;;;5055700;28;20195;-85
2023/02/25 08:53:15;;;;;;;3.23;2.50;;;3.50;99.90;;;;;;5055701;28;20194;-85
2023/02/25 08:55:41;;;;;;;3.10;2.07;;;3.50;99.90;;;;;;5053197;28;20231;-86
2023/02/25 08:58:07;;;;;;;3.13;1.90;;;3.50;99.90;;;;;;5063502;28;20274;-85
2023/02/25 09:00:33;;;;;;;4.40;2.50;;;3.50;99.90;;;;;;5051712;28;20306;-85
2023/02/25 09:02:59;;;;;;;1.57;1.43;;;3.50;99.90;;;;;;5051098;28;20281;-85
2023/02/25 09:05:25;;;;;;;2.33;2.07;;;3.50;99.90;;;;;;5045780;28;20577;-84
2023/02/25 09:07:51;;;;;;;2.20;1.87;;;3.50;99.90;;;;;;5042388;28;20199;-86
2023/02/25 09:10:18;;;;;;;4.23;3.00;;;3.50;99.90;;;;;;5049554;28;20212;-86
2023/02/25 09:12:46;;;;;;;5.10;2.27;;;3.60;99.90;;;;;;5052980;28;20644;-87
2023/02/25 09:15:12;;;;;;;3.07;1.87;;;3.60;99.90;;;;;;5036197;28;20182;-86
2023/02/25 09:17:39;;;;;;;2.67;2.47;;;3.70;99.90;;;;;;5053820;28;20180;-84
2023/02/25 09:20:06;;;;;;;2.40;2.20;;;3.70;99.90;;;;;;5053690;28;20194;-86
2023/02/25 09:22:33;;;;;;;3.63;2.10;;;3.70;99.90;;;;;;5052719;28;20670;-86
2023/02/25 09:24:59;;;;;;;2.47;1.70;;;3.80;99.90;;;;;;5048238;28;20274;-86
2023/02/25 09:27:25;;;;;;;3.00;1.93;;;3.80;99.90;;;;;;5052570;28;20212;-85
2023/02/25 09:29:50;;;;;;;2.47;1.50;;;3.90;99.90;;;;;;5056113;28;20245;-85
2023/02/25 09:32:19;;;;;;;5.60;2.93;;;4.00;99.90;;;;;;5052750;28;20214;-86
2023/02/25 09:34:47;;;;;;;4.10;2.20;;;3.70;99.90;;;;;;5051088;28;20184;-85
2023/02/25 09:37:18;;;;;;;2.23;1.90;;;4.10;99.90;;;;;;5035757;28;20184;-85
2023/02/25 09:39:44;;;;;;;6.47;2.87;;;4.30;99.90;;;;;;5053350;28;20199;-86
2023/02/25 09:42:36;;;;;;;5.33;2.33;;;4.40;99.90;;;;;;5034838;28;20184;-86
2023/02/25 09:45:03;;;;;;;2.97;1.40;;;4.50;99.90;;;;;;5045698;28;20281;-85
2023/02/25 09:47:53;;;;;;;7.60;3.07;;;4.60;99.90;;;;;;5052774;28;20231;-85
2023/02/25 09:50:22;;;;;;;3.27;2.40;;;4.70;99.90;;;;;;5051306;28;20564;-85
2023/02/25 09:53:00;;;;;;;2.50;2.03;;;4.60;99.90;;;;;;5051579;28;20278;-86
2023/02/25 09:55:35;;;;;;;27.87;11.57;;;4.70;99.90;;;;;;5051287;28;20214;-85
2023/02/25 09:58:30;;;;;;;4.17;2.33;;;4.60;99.90;;;;;;5047484;28;20194;-85
2023/02/25 10:01:03;;;;;;;4.80;2.70;;;4.50;99.90;;;;;;5054889;28;20242;-88
2023/02/25 10:03:34;;;;;;;4.57;2.57;;;4.40;99.90;;;;;;5059433;28;20492;-86
2023/02/25 10:06:12;;;;;;;2.13;1.87;;;4.30;99.90;;;;;;5063633;28;20190;-84
2023/02/25 10:09:01;;;;;;;2.00;0.93;;;4.30;99.90;;;;;;5048681;28;20211;-84
2023/02/25 10:11:36;;;;;;;3.53;2.40;;;4.40;99.90;;;;;;5049426;28;20923;-87
2023/02/25 10:14:32;;;;;;;9.53;2.43;;;4.70;99.90;;;;;;5033562;28;20180;-87
2023/02/25 10:16:58;;;;;;;1.63;1.50;;;5.10;99.90;;;;;;5048340;28;20184;-87
2023/02/25 10:19:52;;;;;;;5.17;2.27;;;5.20;99.90;;;;;;5034549;28;20181;-86
2023/02/25 10:22:33;;;;;;;2.00;1.47;;;5.30;99.90;;;;;;5051973;28;20199;-86
2023/02/25 10:25:15;;;;;;;3.17;2.50;;;5.30;99.90;;;;;;5035657;28;20534;-84
2023/02/25 10:27:57;;;;;;;1.13;0.83;;;5.40;99.90;;;;;;5033037;28;20493;-84
2023/02/25 10:30:30;;;;;;;3.10;2.23;;;5.50;99.90;;;;;;5033457;28;20191;-85
2023/02/25 10:32:57;;;;;;;3.13;1.87;;;5.60;99.90;;;;;;5034116;28;20210;-85
2023/02/25 10:35:30;;;;;;;1.87;1.30;;;6.00;99.90;;;;;;5035015;28;20214;-87
2023/02/25 10:37:56;;;;;;;1.77;1.33;;;6.10;99.90;;;;;;5035480;28;20185;-85
2023/02/25 10:40:25;;;;;;;2.40;2.00;;;6.10;99.90;;;;;;5017738;28;20181;-85
2023/02/25 10:42:56;;;;;;;2.03;1.40;;;5.80;99.90;;;;;;5048419;28;20253;-89
2023/02/25 10:45:30;;;;;;;1.97;1.60;;;5.50;99.90;;;;;;5071238;28;20184;-87
2023/02/25 10:48:21;;;;;;;1.90;1.40;;;5.20;99.90;;;;;;5067229;28;20298;-86
2023/02/25 10:51:11;;;;;;;3.10;1.20;;;5.00;99.90;;;;;;5067292;28;20195;-84
2023/02/25 10:53:39;;;;;;;1.30;1.20;;;4.80;99.90;;;;;;5070882;28;20168;-86
2023/02/25 10:56:06;;;;;;;4.77;1.90;;;4.70;99.90;;;;;;5052682;28;20193;-85
2023/02/25 10:58:35;;;;;;;4.60;2.50;;;4.70;99.90;;;;;;5042905;28;20184;-86
2023/02/25 11:01:14;;;;;;;2.97;2.03;;;4.70;99.90;;;;;;5042036;28;20180;-86
2023/02/25 11:04:00;;;;;;;1.37;1.13;;;4.70;99.90;;;;;;5063108;28;20167;-86
2023/02/25 11:06:30;;;;;;;1.37;1.27;;;4.90;99.90;;;;;;5069478;28;20244;-86
2023/02/25 11:08:59;;;;;;;1.50;1.20;;;4.90;99.90;;;;;;5070658;28;20203;-88
2023/02/25 11:11:27;;;;;;;2.20;1.40;;;5.00;99.90;;;;;;5068922;28;20215;-87
2023/02/25 11:14:05;;;;;;;1.80;1.20;;;5.00;99.90;;;;;;5062827;28;20168;-85
2023/02/25 11:16:36;;;;;;;1.30;1.20;;;5.10;99.90;;;;;;5055579;28;20183;-89
2023/02/25 11:19:30;;;;;;;1.70;1.53;;;5.10;99.90;;;;;;5056753;28;20184;-85
2023/02/25 11:21:59;;;;;;;1.50;1.40;;;5.20;99.90;;;;;;5043019;28;20250;-85
2023/02/25 11:24:34;;;;;;;7.27;1.70;;;5.30;99.90;;;;;;5032817;28;20180;-85
2023/02/25 11:27:03;;;;;;;1.53;1.13;;;5.40;99.90;;;;;;5034594;28;20629;-86
2023/02/25 11:29:37;;;;;;;3.07;1.90;;;5.40;99.90;;;;;;5033341;28;20234;-86
2023/02/25 11:32:21;;;;;;;4.40;1.77;;;5.60;99.90;;;;;;5031823;28;20200;-86
2023/02/25 11:34:53;;;;;;;2.10;1.07;;;5.80;99.90;;;;;;5032502;28;20187;-85
2023/02/25 11:37:36;;;;;;;0.80;0.80;;;5.80;99.90;;;;;;5033638;28;20223;-89
2023/02/25 11:40:17;;;;;;;1.90;1.20;;;5.80;99.90;;;;;;5035755;28;20180;-85
2023/02/25 11:42:58;;;;;;;1.43;1.00;;;5.80;99.90;;;;;;5035216;28;20176;-85
2023/02/25 11:45:23;;;;;;;1.23;1.13;;;6.00;99.90;;;;;;5035815;28;20172;-86
2023/02/25 11:47:49;;;;;;;1.33;1.20;;;6.10;99.90;;;;;;5036082;28;20255;-85
2023/02/25 11:50:40;;;;;;;1.00;1.00;;;6.10;99.90;;;;;;5035559;28;20230;-85
2023/02/25 11:53:12;;;;;;;1.47;1.13;;;6.40;99.90;;;;;;5036614;28;20169;-86
2023/02/25 11:56:29;;;;;;;0.97;0.90;;;6.50;99.90;;;;;;5035323;28;20570;-86
2023/02/25 12:09:51;;;;;;;1.77;1.47;;;5.50;99.90;;;;;;5376584;22;20283;-86
2023/02/25 12:12:52;;;;;;;1.43;1.00;;;5.10;99.90;;;;;;5055804;28;20200;-86
2023/02/25 12:15:41;;;;;;;1.53;1.10;;;4.90;99.90;;;;;;5053606;28;20213;-85
2023/02/25 12:18:32;;;;;;;1.03;0.93;;;5.00;99.90;;;;;;5005537;28;20199;-84
2023/02/25 12:21:35;;;;;;;4.13;1.27;;;5.30;99.90;;;;;;5046283;28;20257;-85
2023/02/25 12:24:32;;;;;;;1.00;1.00;;;5.50;99.90;;;;;;5037246;28;20237;-86
2023/02/25 12:27:35;;;;;;;2.10;0.90;;;5.60;99.90;;;;;;5038013;28;20207;-85
2023/02/25 12:30:32;;;;;;;0.70;0.70;;;6.00;99.90;;;;;;5036379;28;20365;-86
2023/02/25 12:33:00;;;;;;;0.93;0.77;;;6.20;99.90;;;;;;5035116;28;20195;-91
2023/02/25 12:35:37;;;;;;;0.53;0.53;;;6.10;99.90;;;;;;5046638;28;20233;-86
2023/02/25 12:38:31;;;;;;;1.90;1.10;;;6.20;99.90;;;;;;5036774;28;20198;-88
2023/02/25 12:41:08;;;;;;;1.13;1.03;;;6.10;99.90;;;;;;5060829;28;20183;-88
2023/02/25 12:43:59;;;;;;;1.40;1.17;;;6.00;99.90;;;;;;5039010;28;20299;-87
2023/02/25 12:46:49;;;;;;;0.90;0.90;;;6.00;99.90;;;;;;5057606;28;20173;-86
2023/02/25 12:49:51;;;;;;;1.63;1.40;;;5.80;99.90;;;;;;5055367;28;20238;-86
2023/02/25 12:53:03;;;;;;;0.80;0.80;;;5.70;99.90;;;;;;5043284;28;20600;-86
2023/02/25 12:56:06;;;;;;;2.87;1.43;;;5.60;99.90;;;;;;5017463;28;20601;-86
2023/02/25 12:58:49;;;;;;;1.50;1.40;;;5.60;99.90;;;;;;5076195;28;21000;-87
2023/02/25 13:01:42;;;;;;;1.60;1.50;;;5.60;99.90;;;;;;5080143;22;20236;-86
2023/02/25 13:04:36;;;;;;;1.43;1.10;;;5.50;99.90;;;;;;5018437;28;20181;-87
2023/02/25 13:07:17;;;;;;;1.33;1.20;;;5.10;99.90;;;;;;5020852;28;20240;-84
2023/02/25 13:09:58;;;;;;;0.80;0.80;;;4.50;99.90;;;;;;5029433;28;20212;-87
2023/02/25 13:12:32;;;;;;;0.83;0.83;;;4.30;99.90;;;;;;5026311;28;20161;-87
2023/02/25 13:15:38;;;;;;;2.37;1.30;;;4.20;99.90;;;;;;5025231;28;20176;-86
2023/02/25 13:18:33;;;;;;;0.90;0.83;;;4.00;99.90;;;;;;5022758;28;20238;-85
2023/02/25 13:21:34;;;;;;;0.60;0.60;;;3.80;99.90;;;;;;5021570;28;20644;-87
2023/02/25 13:24:03;;;;;;;0.70;0.70;;;4.30;99.90;;;;;;5031553;28;20180;-85
2023/02/25 13:26:39;;;;;;;0.50;0.50;;;5.00;99.90;;;;;;5033438;28;20208;-88
2023/02/25 13:29:25;;;;;;;0.80;0.50;;;5.70;99.90;;;;;;5038054;28;20287;-85
2023/02/25 13:32:15;;;;;;;0.50;0.50;;;6.40;99.90;;;;;;5033320;28;20242;-85